sensor_id;sensor_type;location;lat;lon;timestamp;temperature;humidity
423;DHT22;198;48.752;9.180;2022-09-09T00:00:41;16.50;99.90
423;DHT22;198;48.752;9.180;2022-09-09T00:03:17;16.50;99.90
423;DHT22;198;48.752;9.180;2022-09-09T00:06:06;16.40;99.90
423;DHT22;198;48.752;9.180;2022-09-09T00:09:23;16.40;99.90
423;DHT22;198;48.752;9.180;2022-09-09T00:11:41;16.40;99.90
423;DHT22;198;48.752;9.180;2022-09-09T00:14:26;16.40;99.90
423;DHT22;198;48.752;9.180;2022-09-09T00:17:01;16.40;99.90
423;DHT22;198;48.752;9.180;2022-09-09T00:19:30;16.40;99.90
423;DHT22;198;48.752;9.180;2022-09-09T00:22:15;16.40;99.90
423;DHT22;198;48.752;9.180;2022-09-09T00:24:55;16.50;99.90
423;DHT22;198;48.752;9.180;2022-09-09T00:27:31;16.50;99.90
423;DHT22;198;48.752;9.180;2022-09-09T00:30:14;16.50;99.90
423;DHT22;198;48.752;9.180;2022-09-09T00:32:41;16.50;99.90
423;DHT22;198;48.752;9.180;2022-09-09T00:37:48;16.60;99.90
423;DHT22;198;48.752;9.180;2022-09-09T00:40:36;16.60;99.90
423;DHT22;198;48.752;9.180;2022-09-09T00:43:28;16.60;99.90
423;DHT22;198;48.752;9.180;2022-09-09T00:51:36;16.70;99.90
423;DHT22;198;48.752;9.180;2022-09-09T00:57:00;16.80;99.90
423;DHT22;198;48.752;9.180;2022-09-09T01:02:02;16.80;99.90
423;DHT22;198;48.752;9.180;2022-09-09T01:04:33;16.80;99.90
423;DHT22;198;48.752;9.180;2022-09-09T01:07:10;16.80;99.90
423;DHT22;198;48.752;9.180;2022-09-09T01:09:59;16.80;99.90
423;DHT22;198;48.752;9.180;2022-09-09T01:12:35;16.80;99.90
423;DHT22;198;48.752;9.180;2022-09-09T01:15:20;16.80;99.90
423;DHT22;198;48.752;9.180;2022-09-09T01:20:25;16.70;99.90
423;DHT22;198;48.752;9.180;2022-09-09T01:28:17;16.80;99.90
423;DHT22;198;48.752;9.180;2022-09-09T01:30:45;16.70;99.90
423;DHT22;198;48.752;9.180;2022-09-09T01:33:16;16.70;99.90
423;DHT22;198;48.752;9.180;2022-09-09T01:38:16;16.60;99.90
423;DHT22;198;48.752;9.180;2022-09-09T01:40:42;16.50;99.90
423;DHT22;198;48.752;9.180;2022-09-09T01:43:08;16.50;99.90
423;DHT22;198;48.752;9.180;2022-09-09T01:45:34;16.50;99.90
423;DHT22;198;48.752;9.180;2022-09-09T01:48:00;16.50;99.90
423;DHT22;198;48.752;9.180;2022-09-09T01:50:26;16.40;99.90
423;DHT22;198;48.752;9.180;2022-09-09T01:52:55;16.50;99.90
423;DHT22;198;48.752;9.180;2022-09-09T02:01:39;16.40;99.90
423;DHT22;198;48.752;9.180;2022-09-09T02:06:45;16.30;99.90
423;DHT22;198;48.752;9.180;2022-09-09T02:09:12;16.30;99.90
423;DHT22;198;48.752;9.180;2022-09-09T02:11:38;16.30;99.90
423;DHT22;198;48.752;9.180;2022-09-09T02:14:17;16.30;99.90
423;DHT22;198;48.752;9.180;2022-09-09T02:16:50;16.30;99.90
423;DHT22;198;48.752;9.180;2022-09-09T02:19:29;16.30;99.90
423;DHT22;198;48.752;9.180;2022-09-09T02:21:59;16.20;99.90
423;DHT22;198;48.752;9.180;2022-09-09T02:24:26;16.20;99.90
423;DHT22;198;48.752;9.180;2022-09-09T02:26:54;16.10;99.90
423;DHT22;198;48.752;9.180;2022-09-09T02:29:30;16.00;99.90
423;DHT22;198;48.752;9.180;2022-09-09T02:31:59;16.00;99.90
423;DHT22;198;48.752;9.180;2022-09-09T02:34:28;15.90;99.90
423;DHT22;198;48.752;9.180;2022-09-09T02:36:57;15.90;99.90
423;DHT22;198;48.752;9.180;2022-09-09T02:39:25;15.90;99.90
423;DHT22;198;48.752;9.180;2022-09-09T02:41:51;15.80;99.90
423;DHT22;198;48.752;9.180;2022-09-09T02:44:18;15.80;99.90
423;DHT22;198;48.752;9.180;2022-09-09T02:46:59;15.70;99.90
423;DHT22;198;48.752;9.180;2022-09-09T02:49:51;15.70;99.90
423;DHT22;198;48.752;9.180;2022-09-09T02:52:29;15.70;99.90
423;DHT22;198;48.752;9.180;2022-09-09T02:55:02;15.70;99.90
423;DHT22;198;48.752;9.180;2022-09-09T02:57:31;15.70;99.90
423;DHT22;198;48.752;9.180;2022-09-09T02:59:59;15.60;99.90
423;DHT22;198;48.752;9.180;2022-09-09T03:02:25;15.60;99.90
423;DHT22;198;48.752;9.180;2022-09-09T03:04:51;15.60;99.90
423;DHT22;198;48.752;9.180;2022-09-09T03:07:18;15.70;99.90
423;DHT22;198;48.752;9.180;2022-09-09T03:09:43;15.60;99.90
423;DHT22;198;48.752;9.180;2022-09-09T03:12:10;15.70;99.90
423;DHT22;198;48.752;9.180;2022-09-09T03:14:36;15.80;99.90
423;DHT22;198;48.752;9.180;2022-09-09T03:17:04;15.80;99.90
423;DHT22;198;48.752;9.180;2022-09-09T03:19:30;15.80;99.90
423;DHT22;198;48.752;9.180;2022-09-09T03:21:57;15.90;99.90
423;DHT22;198;48.752;9.180;2022-09-09T03:24:22;15.90;99.90
423;DHT22;198;48.752;9.180;2022-09-09T03:26:48;15.90;99.90
423;DHT22;198;48.752;9.180;2022-09-09T03:29:13;15.90;99.90
423;DHT22;198;48.752;9.180;2022-09-09T03:31:40;15.90;99.90
423;DHT22;198;48.752;9.180;2022-09-09T03:34:06;15.90;99.90
423;DHT22;198;48.752;9.180;2022-09-09T03:36:31;15.90;99.90
423;DHT22;198;48.752;9.180;2022-09-09T03:38:57;15.90;99.90
423;DHT22;198;48.752;9.180;2022-09-09T03:41:24;15.80;99.90
423;DHT22;198;48.752;9.180;2022-09-09T03:43:53;15.90;99.90
423;DHT22;198;48.752;9.180;2022-09-09T03:46:20;15.90;99.90
423;DHT22;198;48.752;9.180;2022-09-09T03:48:45;15.90;99.90
423;DHT22;198;48.752;9.180;2022-09-09T03:51:11;16.00;99.90
423;DHT22;198;48.752;9.180;2022-09-09T03:53:37;16.00;99.90
423;DHT22;198;48.752;9.180;2022-09-09T03:56:04;16.00;99.90
423;DHT22;198;48.752;9.180;2022-09-09T03:58:33;16.00;99.90
423;DHT22;198;48.752;9.180;2022-09-09T04:01:01;16.10;99.90
423;DHT22;198;48.752;9.180;2022-09-09T04:03:27;16.10;99.90
423;DHT22;198;48.752;9.180;2022-09-09T04:05:55;16.10;99.90
423;DHT22;198;48.752;9.180;2022-09-09T04:08:21;16.10;99.90
423;DHT22;198;48.752;9.180;2022-09-09T04:10:48;16.00;99.90
423;DHT22;198;48.752;9.180;2022-09-09T04:13:15;15.90;99.90
423;DHT22;198;48.752;9.180;2022-09-09T04:15:43;15.80;99.90
423;DHT22;198;48.752;9.180;2022-09-09T04:18:09;15.70;99.90
423;DHT22;198;48.752;9.180;2022-09-09T04:20:35;15.70;99.90
423;DHT22;198;48.752;9.180;2022-09-09T04:23:01;15.70;99.90
423;DHT22;198;48.752;9.180;2022-09-09T04:25:27;15.70;99.90
423;DHT22;198;48.752;9.180;2022-09-09T04:27:56;15.80;99.90
423;DHT22;198;48.752;9.180;2022-09-09T04:30:22;15.80;99.90
423;DHT22;198;48.752;9.180;2022-09-09T04:32:48;15.90;99.90
423;DHT22;198;48.752;9.180;2022-09-09T04:35:14;15.90;99.90
423;DHT22;198;48.752;9.180;2022-09-09T04:37:39;15.90;99.90
423;DHT22;198;48.752;9.180;2022-09-09T04:40:05;15.90;99.90
423;DHT22;198;48.752;9.180;2022-09-09T04:42:35;16.00;99.90
423;DHT22;198;48.752;9.180;2022-09-09T04:45:01;16.00;99.90
423;DHT22;198;48.752;9.180;2022-09-09T04:47:27;16.00;99.90
423;DHT22;198;48.752;9.180;2022-09-09T04:49:52;16.00;99.90
423;DHT22;198;48.752;9.180;2022-09-09T04:52:20;15.90;99.90
423;DHT22;198;48.752;9.180;2022-09-09T04:54:45;15.90;99.90
423;DHT22;198;48.752;9.180;2022-09-09T04:57:11;15.70;99.90
423;DHT22;198;48.752;9.180;2022-09-09T04:59:37;15.60;99.90
423;DHT22;198;48.752;9.180;2022-09-09T05:02:04;15.60;99.90
423;DHT22;198;48.752;9.180;2022-09-09T05:04:30;15.50;99.90
423;DHT22;198;48.752;9.180;2022-09-09T05:06:55;15.40;99.90
423;DHT22;198;48.752;9.180;2022-09-09T05:09:21;15.40;99.90
423;DHT22;198;48.752;9.180;2022-09-09T05:11:46;15.30;99.90
423;DHT22;198;48.752;9.180;2022-09-09T05:14:12;15.30;99.90
423;DHT22;198;48.752;9.180;2022-09-09T05:16:37;15.30;99.90
423;DHT22;198;48.752;9.180;2022-09-09T05:19:03;15.40;99.90
423;DHT22;198;48.752;9.180;2022-09-09T05:21:29;15.40;99.90
423;DHT22;198;48.752;9.180;2022-09-09T05:23:56;15.50;99.90
423;DHT22;198;48.752;9.180;2022-09-09T05:26:22;15.50;99.90
423;DHT22;198;48.752;9.180;2022-09-09T05:28:48;15.50;99.90
423;DHT22;198;48.752;9.180;2022-09-09T05:31:15;15.70;99.90
423;DHT22;198;48.752;9.180;2022-09-09T05:33:43;15.70;99.90
423;DHT22;198;48.752;9.180;2022-09-09T05:36:13;15.70;99.90
423;DHT22;198;48.752;9.180;2022-09-09T05:38:39;15.80;99.90
423;DHT22;198;48.752;9.180;2022-09-09T05:41:06;15.80;99.90
423;DHT22;198;48.752;9.180;2022-09-09T05:43:32;15.80;99.90
423;DHT22;198;48.752;9.180;2022-09-09T05:46:10;15.90;99.90
423;DHT22;198;48.752;9.180;2022-09-09T05:48:37;15.90;99.90
423;DHT22;198;48.752;9.180;2022-09-09T05:51:05;15.90;99.90
423;DHT22;198;48.752;9.180;2022-09-09T05:53:32;15.90;99.90
423;DHT22;198;48.752;9.180;2022-09-09T05:56:04;16.00;99.90
423;DHT22;198;48.752;9.180;2022-09-09T05:58:31;16.10;99.90
423;DHT22;198;48.752;9.180;2022-09-09T06:01:07;16.10;99.90
423;DHT22;198;48.752;9.180;2022-09-09T06:03:38;16.10;99.90
423;DHT22;198;48.752;9.180;2022-09-09T06:06:06;16.20;99.90
423;DHT22;198;48.752;9.180;2022-09-09T06:08:37;16.40;99.90
423;DHT22;198;48.752;9.180;2022-09-09T06:11:06;16.40;99.90
423;DHT22;198;48.752;9.180;2022-09-09T06:13:32;16.60;99.90
423;DHT22;198;48.752;9.180;2022-09-09T06:15:58;16.70;99.90
423;DHT22;198;48.752;9.180;2022-09-09T06:18:24;16.70;99.90
423;DHT22;198;48.752;9.180;2022-09-09T06:20:57;16.80;99.90
423;DHT22;198;48.752;9.180;2022-09-09T06:23:24;16.80;99.90
423;DHT22;198;48.752;9.180;2022-09-09T06:25:50;16.80;99.90
423;DHT22;198;48.752;9.180;2022-09-09T06:28:17;16.80;99.90
423;DHT22;198;48.752;9.180;2022-09-09T06:30:43;16.90;99.90
423;DHT22;198;48.752;9.180;2022-09-09T06:33:08;16.80;99.90
423;DHT22;198;48.752;9.180;2022-09-09T06:35:34;16.70;99.90
423;DHT22;198;48.752;9.180;2022-09-09T06:38:00;16.70;99.90
423;DHT22;198;48.752;9.180;2022-09-09T06:40:26;16.70;99.90
423;DHT22;198;48.752;9.180;2022-09-09T06:42:51;16.70;99.90
423;DHT22;198;48.752;9.180;2022-09-09T06:45:17;16.80;99.90
423;DHT22;198;48.752;9.180;2022-09-09T06:47:43;16.90;99.90
423;DHT22;198;48.752;9.180;2022-09-09T06:50:09;17.00;99.90
423;DHT22;198;48.752;9.180;2022-09-09T06:52:35;17.10;99.90
423;DHT22;198;48.752;9.180;2022-09-09T06:55:01;17.30;99.90
423;DHT22;198;48.752;9.180;2022-09-09T06:57:26;17.50;99.90
423;DHT22;198;48.752;9.180;2022-09-09T06:59:52;17.70;99.90
423;DHT22;198;48.752;9.180;2022-09-09T07:02:17;17.70;99.90
423;DHT22;198;48.752;9.180;2022-09-09T07:04:43;17.80;99.90
423;DHT22;198;48.752;9.180;2022-09-09T07:07:09;17.80;99.90
423;DHT22;198;48.752;9.180;2022-09-09T07:09:37;17.80;99.90
423;DHT22;198;48.752;9.180;2022-09-09T07:12:03;17.80;99.90
423;DHT22;198;48.752;9.180;2022-09-09T07:14:31;17.90;99.90
423;DHT22;198;48.752;9.180;2022-09-09T07:16:56;18.00;99.90
423;DHT22;198;48.752;9.180;2022-09-09T07:19:22;18.10;99.90
423;DHT22;198;48.752;9.180;2022-09-09T07:21:48;18.10;99.90
423;DHT22;198;48.752;9.180;2022-09-09T07:24:14;18.10;99.90
423;DHT22;198;48.752;9.180;2022-09-09T07:26:40;18.30;99.90
423;DHT22;198;48.752;9.180;2022-09-09T07:29:06;18.50;99.90
423;DHT22;198;48.752;9.180;2022-09-09T07:31:34;18.50;99.90
423;DHT22;198;48.752;9.180;2022-09-09T07:34:02;18.50;99.90
423;DHT22;198;48.752;9.180;2022-09-09T07:36:30;18.60;99.90
423;DHT22;198;48.752;9.180;2022-09-09T07:38:58;18.50;99.90
423;DHT22;198;48.752;9.180;2022-09-09T07:41:36;18.50;99.90
423;DHT22;198;48.752;9.180;2022-09-09T07:44:11;18.60;99.90
423;DHT22;198;48.752;9.180;2022-09-09T07:46:37;18.90;99.90
423;DHT22;198;48.752;9.180;2022-09-09T07:49:07;19.00;99.90
423;DHT22;198;48.752;9.180;2022-09-09T07:51:36;19.10;99.90
423;DHT22;198;48.752;9.180;2022-09-09T07:54:04;19.00;99.90
423;DHT22;198;48.752;9.180;2022-09-09T07:56:30;18.90;99.90
423;DHT22;198;48.752;9.180;2022-09-09T07:58:57;18.90;99.90
423;DHT22;198;48.752;9.180;2022-09-09T08:01:27;18.90;99.90
423;DHT22;198;48.752;9.180;2022-09-09T08:03:59;19.00;99.90
423;DHT22;198;48.752;9.180;2022-09-09T08:06:37;19.00;99.90
423;DHT22;198;48.752;9.180;2022-09-09T08:09:04;18.90;99.90
423;DHT22;198;48.752;9.180;2022-09-09T08:11:29;18.90;99.90
423;DHT22;198;48.752;9.180;2022-09-09T08:13:56;19.00;99.90
423;DHT22;198;48.752;9.180;2022-09-09T08:16:24;19.20;99.90
423;DHT22;198;48.752;9.180;2022-09-09T08:18:52;19.30;99.90
423;DHT22;198;48.752;9.180;2022-09-09T08:21:22;19.40;99.90
423;DHT22;198;48.752;9.180;2022-09-09T08:23:51;19.60;99.90
423;DHT22;198;48.752;9.180;2022-09-09T08:26:20;19.80;99.90
423;DHT22;198;48.752;9.180;2022-09-09T08:28:50;19.90;99.90
423;DHT22;198;48.752;9.180;2022-09-09T08:31:19;19.90;99.90
423;DHT22;198;48.752;9.180;2022-09-09T08:33:46;20.00;99.90
423;DHT22;198;48.752;9.180;2022-09-09T08:36:14;20.30;99.90
423;DHT22;198;48.752;9.180;2022-09-09T08:38:41;20.50;99.90
423;DHT22;198;48.752;9.180;2022-09-09T08:44:08;20.80;97.90
423;DHT22;198;48.752;9.180;2022-09-09T08:49:28;20.50;97.60
423;DHT22;198;48.752;9.180;2022-09-09T08:51:56;20.50;97.40
423;DHT22;198;48.752;9.180;2022-09-09T08:54:23;20.60;97.40
423;DHT22;198;48.752;9.180;2022-09-09T08:56:49;20.60;95.90
423;DHT22;198;48.752;9.180;2022-09-09T08:59:17;20.60;95.50
423;DHT22;198;48.752;9.180;2022-09-09T09:01:52;20.60;95.30
423;DHT22;198;48.752;9.180;2022-09-09T09:07:29;21.30;94.20
423;DHT22;198;48.752;9.180;2022-09-09T09:12:54;22.30;87.60
423;DHT22;198;48.752;9.180;2022-09-09T09:15:25;22.60;83.90
423;DHT22;198;48.752;9.180;2022-09-09T09:17:53;22.30;82.20
423;DHT22;198;48.752;9.180;2022-09-09T09:20:24;21.90;83.50
423;DHT22;198;48.752;9.180;2022-09-09T09:22:54;21.60;85.30
423;DHT22;198;48.752;9.180;2022-09-09T09:25:23;20.80;94.70
423;DHT22;198;48.752;9.180;2022-09-09T09:27:59;20.40;99.90
423;DHT22;198;48.752;9.180;2022-09-09T09:30:44;19.90;99.90
423;DHT22;198;48.752;9.180;2022-09-09T09:35:49;18.10;99.90
423;DHT22;198;48.752;9.180;2022-09-09T09:38:18;17.70;99.90
423;DHT22;198;48.752;9.180;2022-09-09T09:40:53;18.00;99.90
423;DHT22;198;48.752;9.180;2022-09-09T09:43:37;18.60;99.90
423;DHT22;198;48.752;9.180;2022-09-09T09:46:05;19.70;99.90
423;DHT22;198;48.752;9.180;2022-09-09T09:48:42;21.10;99.90
423;DHT22;198;48.752;9.180;2022-09-09T09:51:10;22.90;99.90
423;DHT22;198;48.752;9.180;2022-09-09T09:53:39;24.60;99.90
423;DHT22;198;48.752;9.180;2022-09-09T09:56:10;26.50;99.90
423;DHT22;198;48.752;9.180;2022-09-09T10:01:27;30.20;81.00
423;DHT22;198;48.752;9.180;2022-09-09T10:03:58;30.60;68.90
423;DHT22;198;48.752;9.180;2022-09-09T10:06:32;31.50;62.20
423;DHT22;198;48.752;9.180;2022-09-09T10:08:59;32.90;53.30
423;DHT22;198;48.752;9.180;2022-09-09T10:11:43;33.10;55.40
423;DHT22;198;48.752;9.180;2022-09-09T10:22:49;37.10;40.90
423;DHT22;198;48.752;9.180;2022-09-09T10:33:47;42.40;30.30
423;DHT22;198;48.752;9.180;2022-09-09T10:38:47;44.00;29.40
423;DHT22;198;48.752;9.180;2022-09-09T10:44:06;39.30;30.80
423;DHT22;198;48.752;9.180;2022-09-09T10:53:05;36.30;34.50
423;DHT22;198;48.752;9.180;2022-09-09T10:55:41;34.40;38.40
423;DHT22;198;48.752;9.180;2022-09-09T10:58:14;33.20;38.60
423;DHT22;198;48.752;9.180;2022-09-09T11:00:47;31.80;40.10
423;DHT22;198;48.752;9.180;2022-09-09T11:03:27;31.60;44.00
423;DHT22;198;48.752;9.180;2022-09-09T11:06:21;34.00;40.80
423;DHT22;198;48.752;9.180;2022-09-09T11:08:50;34.80;38.30
423;DHT22;198;48.752;9.180;2022-09-09T11:11:38;34.10;38.00
423;DHT22;198;48.752;9.180;2022-09-09T11:14:36;32.40;40.20
423;DHT22;198;48.752;9.180;2022-09-09T11:17:10;30.70;41.70
423;DHT22;198;48.752;9.180;2022-09-09T11:19:40;29.90;43.10
423;DHT22;198;48.752;9.180;2022-09-09T11:22:28;28.80;43.50
423;DHT22;198;48.752;9.180;2022-09-09T11:25:17;28.00;44.80
423;DHT22;198;48.752;9.180;2022-09-09T11:30:34;25.60;46.30
423;DHT22;198;48.752;9.180;2022-09-09T11:33:29;24.30;47.90
423;DHT22;198;48.752;9.180;2022-09-09T11:38:49;22.40;51.90
423;DHT22;198;48.752;9.180;2022-09-09T11:41:17;22.20;53.20
423;DHT22;198;48.752;9.180;2022-09-09T11:43:45;22.20;54.30
423;DHT22;198;48.752;9.180;2022-09-09T11:46:13;22.00;54.40
423;DHT22;198;48.752;9.180;2022-09-09T11:48:42;21.90;54.70
423;DHT22;198;48.752;9.180;2022-09-09T11:53:50;21.70;54.80
423;DHT22;198;48.752;9.180;2022-09-09T11:56:43;21.70;55.00
423;DHT22;198;48.752;9.180;2022-09-09T11:59:22;21.70;54.90
423;DHT22;198;48.752;9.180;2022-09-09T12:02:28;22.10;55.30
423;DHT22;198;48.752;9.180;2022-09-09T12:05:05;23.40;54.00
423;DHT22;198;48.752;9.180;2022-09-09T12:07:49;26.20;49.60
423;DHT22;198;48.752;9.180;2022-09-09T12:10:33;27.90;43.70
423;DHT22;198;48.752;9.180;2022-09-09T12:13:16;26.50;43.80
423;DHT22;198;48.752;9.180;2022-09-09T12:15:56;25.20;46.00
423;DHT22;198;48.752;9.180;2022-09-09T12:18:33;24.70;47.40
423;DHT22;198;48.752;9.180;2022-09-09T12:23:55;24.00;49.30
423;DHT22;198;48.752;9.180;2022-09-09T12:26:41;25.40;47.90
423;DHT22;198;48.752;9.180;2022-09-09T12:32:04;30.60;40.60
423;DHT22;198;48.752;9.180;2022-09-09T12:35:07;31.60;36.20
423;DHT22;198;48.752;9.180;2022-09-09T12:37:41;32.10;35.10
423;DHT22;198;48.752;9.180;2022-09-09T12:40:25;32.50;33.80
423;DHT22;198;48.752;9.180;2022-09-09T12:42:51;32.70;33.30
423;DHT22;198;48.752;9.180;2022-09-09T12:45:22;33.40;33.00
423;DHT22;198;48.752;9.180;2022-09-09T12:50:28;33.30;31.90
423;DHT22;198;48.752;9.180;2022-09-09T12:52:57;31.50;34.80
423;DHT22;198;48.752;9.180;2022-09-09T12:55:28;28.90;37.00
423;DHT22;198;48.752;9.180;2022-09-09T12:57:55;27.40;40.60
423;DHT22;198;48.752;9.180;2022-09-09T13:00:23;26.70;42.30
423;DHT22;198;48.752;9.180;2022-09-09T13:02:53;26.30;43.80
423;DHT22;198;48.752;9.180;2022-09-09T13:05:36;27.50;42.60
423;DHT22;198;48.752;9.180;2022-09-09T13:08:04;27.70;41.60
423;DHT22;198;48.752;9.180;2022-09-09T13:10:33;27.70;41.80
423;DHT22;198;48.752;9.180;2022-09-09T13:12:59;28.40;41.00
423;DHT22;198;48.752;9.180;2022-09-09T13:15:28;28.40;39.70
423;DHT22;198;48.752;9.180;2022-09-09T13:18:00;27.70;40.70
423;DHT22;198;48.752;9.180;2022-09-09T13:20:27;26.90;41.90
423;DHT22;198;48.752;9.180;2022-09-09T13:22:54;27.10;42.90
423;DHT22;198;48.752;9.180;2022-09-09T13:25:24;28.10;41.70
423;DHT22;198;48.752;9.180;2022-09-09T13:28:02;28.30;39.60
423;DHT22;198;48.752;9.180;2022-09-09T13:30:32;28.70;40.00
423;DHT22;198;48.752;9.180;2022-09-09T13:33:20;29.80;38.30
423;DHT22;198;48.752;9.180;2022-09-09T13:35:57;30.20;37.30
423;DHT22;198;48.752;9.180;2022-09-09T13:38:22;30.20;35.30
423;DHT22;198;48.752;9.180;2022-09-09T13:41:03;30.20;35.10
423;DHT22;198;48.752;9.180;2022-09-09T13:43:44;29.50;35.80
423;DHT22;198;48.752;9.180;2022-09-09T13:46:32;28.00;38.20
423;DHT22;198;48.752;9.180;2022-09-09T13:49:18;26.40;40.20
423;DHT22;198;48.752;9.180;2022-09-09T13:51:49;25.70;42.10
423;DHT22;198;48.752;9.180;2022-09-09T13:54:17;25.00;43.80
423;DHT22;198;48.752;9.180;2022-09-09T13:56:43;24.50;45.20
423;DHT22;198;48.752;9.180;2022-09-09T13:59:12;24.40;46.10
423;DHT22;198;48.752;9.180;2022-09-09T14:01:38;24.10;45.90
423;DHT22;198;48.752;9.180;2022-09-09T14:04:03;24.10;46.40
423;DHT22;198;48.752;9.180;2022-09-09T14:06:30;23.80;47.00
423;DHT22;198;48.752;9.180;2022-09-09T14:08:57;23.70;47.30
423;DHT22;198;48.752;9.180;2022-09-09T14:11:23;23.70;47.70
423;DHT22;198;48.752;9.180;2022-09-09T14:13:48;23.50;46.90
423;DHT22;198;48.752;9.180;2022-09-09T14:16:17;23.10;47.30
423;DHT22;198;48.752;9.180;2022-09-09T14:18:46;23.00;47.70
423;DHT22;198;48.752;9.180;2022-09-09T14:21:12;22.70;47.20
423;DHT22;198;48.752;9.180;2022-09-09T14:23:38;22.60;47.90
423;DHT22;198;48.752;9.180;2022-09-09T14:26:05;22.60;48.30
423;DHT22;198;48.752;9.180;2022-09-09T14:28:31;22.70;48.10
423;DHT22;198;48.752;9.180;2022-09-09T14:31:00;22.70;47.20
423;DHT22;198;48.752;9.180;2022-09-09T14:33:26;22.70;47.20
423;DHT22;198;48.752;9.180;2022-09-09T14:36:01;22.80;47.20
423;DHT22;198;48.752;9.180;2022-09-09T14:38:32;22.90;46.20
423;DHT22;198;48.752;9.180;2022-09-09T14:40:59;23.00;46.80
423;DHT22;198;48.752;9.180;2022-09-09T14:43:24;23.20;46.10
423;DHT22;198;48.752;9.180;2022-09-09T14:45:51;23.40;46.00
423;DHT22;198;48.752;9.180;2022-09-09T14:48:17;23.40;46.30
423;DHT22;198;48.752;9.180;2022-09-09T14:50:42;23.80;46.00
423;DHT22;198;48.752;9.180;2022-09-09T14:53:08;24.40;44.80
423;DHT22;198;48.752;9.180;2022-09-09T14:55:35;25.00;43.90
423;DHT22;198;48.752;9.180;2022-09-09T14:58:01;25.70;42.40
423;DHT22;198;48.752;9.180;2022-09-09T15:00:26;27.10;40.60
423;DHT22;198;48.752;9.180;2022-09-09T15:02:53;27.90;38.80
423;DHT22;198;48.752;9.180;2022-09-09T15:05:18;27.70;38.70
423;DHT22;198;48.752;9.180;2022-09-09T15:07:44;27.50;39.20
423;DHT22;198;48.752;9.180;2022-09-09T15:10:10;26.90;39.30
423;DHT22;198;48.752;9.180;2022-09-09T15:12:36;26.40;39.80
423;DHT22;198;48.752;9.180;2022-09-09T15:15:02;26.20;40.30
423;DHT22;198;48.752;9.180;2022-09-09T15:17:28;25.80;40.90
423;DHT22;198;48.752;9.180;2022-09-09T15:19:54;25.90;41.30
423;DHT22;198;48.752;9.180;2022-09-09T15:22:20;25.40;41.00
423;DHT22;198;48.752;9.180;2022-09-09T15:24:45;24.80;42.70
423;DHT22;198;48.752;9.180;2022-09-09T15:27:11;24.30;43.70
423;DHT22;198;48.752;9.180;2022-09-09T15:29:36;23.90;44.30
423;DHT22;198;48.752;9.180;2022-09-09T15:32:03;24.00;45.00
423;DHT22;198;48.752;9.180;2022-09-09T15:34:29;24.20;44.50
423;DHT22;198;48.752;9.180;2022-09-09T15:36:54;24.90;44.10
423;DHT22;198;48.752;9.180;2022-09-09T15:39:20;24.80;43.20
423;DHT22;198;48.752;9.180;2022-09-09T15:41:47;24.50;43.60
423;DHT22;198;48.752;9.180;2022-09-09T15:44:14;24.10;44.60
423;DHT22;198;48.752;9.180;2022-09-09T15:46:43;23.70;45.00
423;DHT22;198;48.752;9.180;2022-09-09T15:49:16;23.00;45.80
423;DHT22;198;48.752;9.180;2022-09-09T15:51:54;22.50;46.60
423;DHT22;198;48.752;9.180;2022-09-09T15:54:21;22.10;47.80
423;DHT22;198;48.752;9.180;2022-09-09T15:56:54;21.80;48.20
423;DHT22;198;48.752;9.180;2022-09-09T15:59:21;21.50;48.00
423;DHT22;198;48.752;9.180;2022-09-09T16:01:48;21.40;48.90
423;DHT22;198;48.752;9.180;2022-09-09T16:04:17;21.30;49.30
423;DHT22;198;48.752;9.180;2022-09-09T16:06:49;21.20;49.40
423;DHT22;198;48.752;9.180;2022-09-09T16:09:15;21.20;49.30
423;DHT22;198;48.752;9.180;2022-09-09T16:11:41;21.10;49.50
423;DHT22;198;48.752;9.180;2022-09-09T16:14:06;21.00;49.50
423;DHT22;198;48.752;9.180;2022-09-09T16:16:32;20.90;50.10
423;DHT22;198;48.752;9.180;2022-09-09T16:19:00;20.90;50.60
423;DHT22;198;48.752;9.180;2022-09-09T16:21:31;20.80;50.70
423;DHT22;198;48.752;9.180;2022-09-09T16:23:59;20.80;51.00
423;DHT22;198;48.752;9.180;2022-09-09T16:26:25;20.70;51.00
423;DHT22;198;48.752;9.180;2022-09-09T16:28:53;20.70;51.10
423;DHT22;198;48.752;9.180;2022-09-09T16:31:21;20.60;50.70
423;DHT22;198;48.752;9.180;2022-09-09T16:33:48;20.60;51.20
423;DHT22;198;48.752;9.180;2022-09-09T16:36:16;20.60;51.20
423;DHT22;198;48.752;9.180;2022-09-09T16:38:42;20.50;51.40
423;DHT22;198;48.752;9.180;2022-09-09T16:41:09;20.50;51.80
423;DHT22;198;48.752;9.180;2022-09-09T16:43:36;20.50;52.50
423;DHT22;198;48.752;9.180;2022-09-09T16:46:18;20.50;53.40
423;DHT22;198;48.752;9.180;2022-09-09T16:48:46;20.60;53.90
423;DHT22;198;48.752;9.180;2022-09-09T16:51:20;20.70;54.00
423;DHT22;198;48.752;9.180;2022-09-09T16:53:46;20.60;54.00
423;DHT22;198;48.752;9.180;2022-09-09T16:56:16;20.50;53.80
423;DHT22;198;48.752;9.180;2022-09-09T16:58:42;20.40;53.20
423;DHT22;198;48.752;9.180;2022-09-09T17:01:09;20.30;53.70
423;DHT22;198;48.752;9.180;2022-09-09T17:03:36;20.20;54.20
423;DHT22;198;48.752;9.180;2022-09-09T17:06:02;20.00;53.90
423;DHT22;198;48.752;9.180;2022-09-09T17:08:29;19.90;54.30
423;DHT22;198;48.752;9.180;2022-09-09T17:10:55;19.80;54.00
423;DHT22;198;48.752;9.180;2022-09-09T17:13:21;19.50;54.30
423;DHT22;198;48.752;9.180;2022-09-09T17:15:47;19.30;54.90
423;DHT22;198;48.752;9.180;2022-09-09T17:18:13;19.10;55.80
423;DHT22;198;48.752;9.180;2022-09-09T17:20:39;19.00;56.60
423;DHT22;198;48.752;9.180;2022-09-09T17:23:07;18.90;57.40
423;DHT22;198;48.752;9.180;2022-09-09T17:25:33;18.80;58.30
423;DHT22;198;48.752;9.180;2022-09-09T17:27:59;18.70;59.00
423;DHT22;198;48.752;9.180;2022-09-09T17:30:25;18.60;59.60
423;DHT22;198;48.752;9.180;2022-09-09T17:32:51;18.50;60.40
423;DHT22;198;48.752;9.180;2022-09-09T17:35:17;18.40;61.40
423;DHT22;198;48.752;9.180;2022-09-09T17:37:43;18.30;62.20
423;DHT22;198;48.752;9.180;2022-09-09T17:40:09;18.20;64.00
423;DHT22;198;48.752;9.180;2022-09-09T17:42:35;18.20;64.20
423;DHT22;198;48.752;9.180;2022-09-09T17:45:00;18.10;64.70
423;DHT22;198;48.752;9.180;2022-09-09T17:47:26;18.00;65.80
423;DHT22;198;48.752;9.180;2022-09-09T17:49:53;18.00;66.70
423;DHT22;198;48.752;9.180;2022-09-09T17:52:19;18.10;67.70
423;DHT22;198;48.752;9.180;2022-09-09T17:54:45;18.00;68.10
423;DHT22;198;48.752;9.180;2022-09-09T17:57:10;18.00;68.70
423;DHT22;198;48.752;9.180;2022-09-09T17:59:36;18.00;69.50
423;DHT22;198;48.752;9.180;2022-09-09T18:02:02;17.90;70.30
423;DHT22;198;48.752;9.180;2022-09-09T18:04:29;17.90;71.10
423;DHT22;198;48.752;9.180;2022-09-09T18:06:56;17.90;71.60
423;DHT22;198;48.752;9.180;2022-09-09T18:09:24;17.90;72.50
423;DHT22;198;48.752;9.180;2022-09-09T18:11:53;17.80;73.10
423;DHT22;198;48.752;9.180;2022-09-09T18:14:29;17.80;73.90
423;DHT22;198;48.752;9.180;2022-09-09T18:16:56;17.80;74.40
423;DHT22;198;48.752;9.180;2022-09-09T18:19:24;17.90;74.80
423;DHT22;198;48.752;9.180;2022-09-09T18:21:50;18.00;75.10
423;DHT22;198;48.752;9.180;2022-09-09T18:24:18;18.10;75.70
423;DHT22;198;48.752;9.180;2022-09-09T18:26:45;18.10;75.30